Time;durP1;ratioP1;P1;durP2;ratioP2;P2;SDS_P1;SDS_P2;PMS_P1;PMS_P2;Temp;Humidity;BMP_temperature;BMP_pressure;BME280_temperature;BME280_humidity;BME280_pressure;Samples;Min_cycle;Max_cycle;Signal;HPM_P1;HPM_P2
2023/04/22 00:01:47;;;;;;;6.63;3.10;;;11.60;29.40;;;;;;5095031;27;20467;-66
2023/04/22 00:04:14;;;;;;;6.10;2.90;;;11.60;29.30;;;;;;5078212;27;21009;-66
2023/04/22 00:06:41;;;;;;;7.00;3.23;;;11.60;29.30;;;;;;5090509;27;22287;-66
2023/04/22 00:09:09;;;;;;;6.87;3.13;;;11.60;29.30;;;;;;5098376;27;20472;-66
2023/04/22 00:11:35;;;;;;;6.40;3.37;;;11.60;29.50;;;;;;5101541;27;20508;-66
2023/04/22 00:14:02;;;;;;;7.07;3.30;;;11.60;29.30;;;;;;5096447;27;20504;-66
2023/04/22 00:16:30;;;;;;;5.90;2.77;;;11.60;29.30;;;;;;5091026;28;20470;-66
2023/04/22 00:18:57;;;;;;;7.23;2.90;;;11.60;29.30;;;;;;5094443;27;20539;-66
2023/04/22 00:21:24;;;;;;;6.43;3.23;;;11.60;29.10;;;;;;5098780;28;20483;-66
2023/04/22 00:23:50;;;;;;;6.50;3.03;;;11.60;29.10;;;;;;5097682;27;20458;-66
2023/04/22 00:26:17;;;;;;;5.63;2.80;;;11.50;29.20;;;;;;5104837;28;20974;-66
2023/04/22 00:28:44;;;;;;;6.67;3.37;;;11.50;29.40;;;;;;5092354;28;20495;-66
2023/04/22 00:31:10;;;;;;;7.60;3.67;;;11.50;29.40;;;;;;5101259;27;20463;-66
2023/04/22 00:33:38;;;;;;;8.10;3.50;;;11.50;29.60;;;;;;5094033;28;21184;-66
2023/04/22 00:36:05;;;;;;;8.03;3.53;;;11.50;29.60;;;;;;5089872;28;20458;-66
2023/04/22 00:38:32;;;;;;;8.73;4.70;;;11.50;29.60;;;;;;5099721;28;20511;-66
2023/04/22 00:40:59;;;;;;;8.80;4.00;;;11.50;29.40;;;;;;5101355;27;20468;-66
2023/04/22 00:43:26;;;;;;;10.10;4.67;;;11.50;29.40;;;;;;5098626;27;20458;-66
2023/04/22 00:45:53;;;;;;;7.43;3.50;;;11.50;29.60;;;;;;5097058;27;20986;-66
2023/04/22 00:48:20;;;;;;;10.83;4.33;;;11.50;29.50;;;;;;5097734;27;21002;-66
2023/04/22 00:50:48;;;;;;;8.10;3.97;;;11.50;29.30;;;;;;5083076;27;20471;-66
2023/04/22 00:53:15;;;;;;;7.77;4.10;;;11.50;29.30;;;;;;5094886;27;20519;-65
2023/04/22 00:55:42;;;;;;;9.13;3.20;;;11.50;29.20;;;;;;5067977;27;21710;-65
2023/04/22 00:58:10;;;;;;;12.17;4.30;;;11.50;29.60;;;;;;5091932;27;21470;-65
2023/04/22 01:00:36;;;;;;;12.43;5.77;;;11.50;29.70;;;;;;5094792;27;20519;-66
2023/04/22 01:03:06;;;;;;;10.60;5.80;;;11.50;29.60;;;;;;5105527;27;20939;-66
2023/04/22 01:05:33;;;;;;;14.07;5.30;;;11.50;29.60;;;;;;5106247;28;20520;-66
2023/04/22 01:08:01;;;;;;;12.30;5.23;;;11.40;29.90;;;;;;5090938;28;20479;-66
2023/04/22 01:10:28;;;;;;;13.47;5.37;;;11.30;30.10;;;;;;5099016;28;20474;-66
2023/04/22 01:12:55;;;;;;;7.83;3.80;;;11.30;30.10;;;;;;5102400;27;20896;-66
2023/04/22 01:15:22;;;;;;;10.90;4.20;;;11.30;30.50;;;;;;5097606;28;20463;-66
2023/04/22 01:17:49;;;;;;;10.90;5.13;;;11.20;30.70;;;;;;5091382;28;21254;-66
2023/04/22 01:20:16;;;;;;;13.70;4.53;;;11.20;31.20;;;;;;5100690;28;20982;-66
2023/04/22 01:22:45;;;;;;;9.80;5.13;;;11.10;31.50;;;;;;5092588;28;20455;-66
2023/04/22 01:25:13;;;;;;;14.00;5.40;;;11.10;31.90;;;;;;5091513;28;20468;-67
2023/04/22 01:27:40;;;;;;;9.30;4.53;;;11.00;31.90;;;;;;5091903;27;20505;-66
2023/04/22 01:30:08;;;;;;;12.17;4.37;;;11.00;32.10;;;;;;5100915;27;20990;-66
2023/04/22 01:32:35;;;;;;;27.97;5.10;;;10.90;32.70;;;;;;5094030;27;20482;-66
2023/04/22 01:35:02;;;;;;;12.03;4.17;;;10.80;33.30;;;;;;5090762;27;21273;-66
2023/04/22 01:37:29;;;;;;;8.87;3.60;;;10.80;33.20;;;;;;5096573;28;20481;-65
2023/04/22 01:39:58;;;;;;;8.80;4.27;;;10.90;33.00;;;;;;5104043;27;20493;-66
2023/04/22 01:42:26;;;;;;;6.90;2.93;;;10.80;33.20;;;;;;5096120;27;20452;-66
2023/04/22 01:44:53;;;;;;;7.60;2.63;;;10.90;32.70;;;;;;5099615;28;20502;-66
2023/04/22 01:47:20;;;;;;;6.97;2.37;;;10.90;32.00;;;;;;5088680;27;20487;-65
2023/04/22 01:49:47;;;;;;;11.77;3.80;;;11.00;30.90;;;;;;5097976;27;20481;-65
2023/04/22 01:52:14;;;;;;;9.53;4.20;;;11.00;30.70;;;;;;5102727;27;20514;-65
2023/04/22 01:54:41;;;;;;;10.33;4.10;;;11.00;31.00;;;;;;5102784;27;20929;-65
2023/04/22 01:57:10;;;;;;;13.87;4.83;;;11.00;31.60;;;;;;5101746;27;20487;-65
2023/04/22 01:59:38;;;;;;;12.30;5.33;;;11.00;31.90;;;;;;5095722;27;20796;-66
2023/04/22 02:02:05;;;;;;;11.80;4.37;;;10.90;32.50;;;;;;5096623;27;20478;-66
2023/04/22 02:04:32;;;;;;;13.93;4.90;;;10.90;32.40;;;;;;5102474;28;20499;-66
2023/04/22 02:06:58;;;;;;;13.27;4.70;;;10.80;32.50;;;;;;5090331;27;20479;-66
2023/04/22 02:09:25;;;;;;;10.30;4.00;;;10.80;32.50;;;;;;5100658;27;20470;-66
2023/04/22 02:11:52;;;;;;;10.20;4.20;;;10.80;32.50;;;;;;5095351;27;20516;-66
2023/04/22 02:14:18;;;;;;;12.63;4.93;;;10.80;32.50;;;;;;5106371;27;20483;-68
2023/04/22 02:16:46;;;;;;;8.00;4.00;;;10.80;32.60;;;;;;5098842;28;20477;-66
2023/04/22 02:19:13;;;;;;;8.80;4.70;;;10.80;32.50;;;;;;5091815;28;20464;-66
2023/04/22 02:21:40;;;;;;;9.33;4.73;;;10.80;32.60;;;;;;5099736;27;20611;-65
2023/04/22 02:24:07;;;;;;;9.80;4.17;;;10.80;32.50;;;;;;5103340;27;20540;-66
2023/04/22 02:26:33;;;;;;;10.63;4.47;;;10.80;32.50;;;;;;5098200;27;20464;-66
2023/04/22 02:29:00;;;;;;;8.50;4.37;;;10.80;32.50;;;;;;5103119;27;20563;-66
2023/04/22 02:31:27;;;;;;;9.97;4.30;;;10.80;32.50;;;;;;5095791;28;20550;-66
2023/04/22 02:33:55;;;;;;;8.47;3.83;;;10.70;32.60;;;;;;5095411;27;20494;-66
2023/04/22 02:36:22;;;;;;;9.90;4.17;;;10.70;32.50;;;;;;5086041;28;20456;-65
2023/04/22 02:38:49;;;;;;;9.40;4.30;;;10.70;32.70;;;;;;5081400;28;20466;-66
2023/04/22 02:41:16;;;;;;;9.67;4.40;;;10.70;33.00;;;;;;5094449;28;20512;-67
2023/04/22 02:43:45;;;;;;;8.77;4.60;;;10.60;33.20;;;;;;5095921;28;20463;-65
2023/04/22 02:46:12;;;;;;;9.83;4.57;;;10.60;33.40;;;;;;5097965;28;20502;-67
2023/04/22 02:48:39;;;;;;;11.80;4.80;;;10.50;33.40;;;;;;5093717;28;20503;-65
2023/04/22 02:51:07;;;;;;;10.40;4.40;;;10.50;33.30;;;;;;5090317;28;20479;-66
2023/04/22 02:53:35;;;;;;;10.43;4.90;;;10.50;33.40;;;;;;5099260;28;20514;-65
2023/04/22 02:56:02;;;;;;;13.47;4.77;;;10.50;33.40;;;;;;5096175;27;20451;-66
2023/04/22 02:58:28;;;;;;;8.63;4.80;;;10.50;33.50;;;;;;5109993;27;20482;-66
2023/04/22 03:00:56;;;;;;;11.37;5.00;;;10.50;33.50;;;;;;5106430;27;20996;-65
2023/04/22 03:03:23;;;;;;;11.20;5.13;;;10.50;33.50;;;;;;5105756;28;20490;-68
2023/04/22 03:05:49;;;;;;;10.73;4.80;;;10.50;33.40;;;;;;5096039;27;20479;-65
2023/04/22 03:08:18;;;;;;;12.03;5.23;;;10.50;33.20;;;;;;5091438;28;20479;-68
2023/04/22 03:10:45;;;;;;;13.53;4.77;;;10.50;33.40;;;;;;5099739;27;20470;-67
2023/04/22 03:13:12;;;;;;;11.97;4.83;;;10.50;33.30;;;;;;5095684;28;20482;-67
2023/04/22 03:15:40;;;;;;;16.60;5.10;;;10.50;33.30;;;;;;5106133;27;20466;-67
2023/04/22 03:18:06;;;;;;;11.57;5.33;;;10.50;33.20;;;;;;5095864;27;20485;-67
2023/04/22 03:20:33;;;;;;;11.90;5.00;;;10.50;33.20;;;;;;5102038;28;20455;-66
2023/04/22 03:23:00;;;;;;;11.13;4.73;;;10.50;33.20;;;;;;5105288;27;20455;-66
2023/04/22 03:25:28;;;;;;;10.50;5.50;;;10.50;33.20;;;;;;5101800;27;20486;-66
2023/04/22 03:27:55;;;;;;;12.97;4.27;;;10.40;33.90;;;;;;5096065;28;20480;-66
2023/04/22 03:30:21;;;;;;;16.53;5.40;;;10.40;33.60;;;;;;5104321;27;20466;-66
2023/04/22 03:32:48;;;;;;;10.60;4.40;;;10.40;33.90;;;;;;5097750;27;20460;-66
2023/04/22 03:35:15;;;;;;;12.07;5.30;;;10.40;33.80;;;;;;5097504;27;20463;-66
2023/04/22 03:37:41;;;;;;;9.17;5.13;;;10.30;34.00;;;;;;5098255;27;20488;-66
2023/04/22 03:40:09;;;;;;;9.87;4.43;;;10.30;34.10;;;;;;5107366;27;20466;-66
2023/04/22 03:42:37;;;;;;;8.83;4.67;;;10.30;34.10;;;;;;5099377;28;20896;-66
2023/04/22 03:45:05;;;;;;;8.90;4.03;;;10.30;34.30;;;;;;5103247;27;20470;-66
2023/04/22 03:47:32;;;;;;;9.37;4.77;;;10.30;34.20;;;;;;5105183;28;20573;-66
2023/04/22 03:49:59;;;;;;;10.80;4.70;;;10.30;34.30;;;;;;5102448;28;20459;-66
2023/04/22 03:52:26;;;;;;;7.43;4.20;;;10.30;34.30;;;;;;5098653;27;20541;-66
2023/04/22 03:54:53;;;;;;;9.73;4.60;;;10.30;34.30;;;;;;5100894;27;20999;-66
2023/04/22 03:57:19;;;;;;;7.77;3.80;;;10.30;34.20;;;;;;5101820;27;20497;-66
2023/04/22 03:59:47;;;;;;;8.17;4.03;;;10.20;34.20;;;;;;5096498;27;20468;-66
2023/04/22 04:02:14;;;;;;;8.13;4.33;;;10.20;34.40;;;;;;5099649;27;20506;-66
2023/04/22 04:04:41;;;;;;;8.60;4.73;;;10.20;34.70;;;;;;5102294;27;20554;-66
2023/04/22 04:07:07;;;;;;;10.70;4.33;;;10.10;34.70;;;;;;5100402;27;20487;-66
2023/04/22 04:09:34;;;;;;;8.80;4.77;;;10.10;35.00;;;;;;5107623;27;20459;-66
2023/04/22 04:12:01;;;;;;;9.17;4.80;;;10.00;35.20;;;;;;5100628;27;20844;-66
2023/04/22 04:14:28;;;;;;;10.50;5.47;;;10.00;35.40;;;;;;5101246;27;20491;-66
2023/04/22 04:16:57;;;;;;;9.47;4.73;;;9.90;36.00;;;;;;5099805;27;21079;-66
2023/04/22 04:19:24;;;;;;;8.80;4.33;;;9.90;36.60;;;;;;5096055;27;20452;-66
2023/04/22 04:21:51;;;;;;;9.90;5.17;;;9.90;36.70;;;;;;5102291;27;20815;-66
2023/04/22 04:24:18;;;;;;;11.30;5.50;;;9.90;36.60;;;;;;5098392;27;20487;-66
2023/04/22 04:26:44;;;;;;;9.77;4.63;;;9.90;36.70;;;;;;5102834;27;20495;-66
2023/04/22 04:29:12;;;;;;;7.90;4.57;;;9.90;36.60;;;;;;5104426;27;20946;-65
2023/04/22 04:31:39;;;;;;;9.57;5.70;;;9.90;36.50;;;;;;5098986;28;20473;-65
2023/04/22 04:34:07;;;;;;;10.63;5.90;;;9.90;36.70;;;;;;5098303;27;20561;-66
2023/04/22 04:36:33;;;;;;;9.70;6.00;;;9.90;36.60;;;;;;5104831;27;20467;-67
2023/04/22 04:39:00;;;;;;;8.13;5.20;;;10.00;36.60;;;;;;5102588;28;20490;-66
2023/04/22 04:41:28;;;;;;;11.53;6.10;;;10.00;36.60;;;;;;5100940;27;20555;-66
2023/04/22 04:43:55;;;;;;;10.97;6.50;;;10.10;36.60;;;;;;5101246;27;20513;-66
2023/04/22 04:46:22;;;;;;;14.07;7.63;;;10.10;36.50;;;;;;5101175;27;20484;-66
2023/04/22 04:48:49;;;;;;;8.07;5.70;;;10.20;36.40;;;;;;5097486;27;20467;-66
2023/04/22 04:51:17;;;;;;;11.20;5.27;;;10.20;36.40;;;;;;5097417;27;21241;-65
2023/04/22 04:53:44;;;;;;;8.67;5.50;;;10.20;36.30;;;;;;5103842;27;20471;-66
2023/04/22 04:56:11;;;;;;;15.57;5.80;;;10.20;36.30;;;;;;5095824;28;20471;-66
2023/04/22 04:58:37;;;;;;;9.27;6.10;;;10.30;36.30;;;;;;5101402;27;20849;-66
2023/04/22 05:01:05;;;;;;;14.60;6.90;;;10.30;36.20;;;;;;5101807;27;20528;-66
2023/04/22 05:03:31;;;;;;;8.30;4.67;;;10.40;35.90;;;;;;5101201;27;21069;-66
2023/04/22 05:05:58;;;;;;;8.10;4.93;;;10.50;35.80;;;;;;5101550;27;20462;-66
2023/04/22 05:08:26;;;;;;;9.83;5.40;;;10.50;35.80;;;;;;5096657;28;20480;-66
2023/04/22 05:10:53;;;;;;;9.13;5.23;;;10.60;35.70;;;;;;5099450;27;20488;-66
2023/04/22 05:13:20;;;;;;;8.97;4.70;;;10.60;35.90;;;;;;5101328;27;20479;-66
2023/04/22 05:15:47;;;;;;;9.80;5.30;;;10.60;36.20;;;;;;5096618;27;20469;-66
2023/04/22 05:18:14;;;;;;;9.40;5.70;;;10.60;36.30;;;;;;5098953;27;20491;-66
2023/04/22 05:20:40;;;;;;;9.80;5.80;;;10.70;36.10;;;;;;5094598;28;20473;-66
2023/04/22 05:23:07;;;;;;;9.23;5.70;;;10.80;35.90;;;;;;5098465;28;20474;-66
2023/04/22 05:25:35;;;;;;;10.50;5.90;;;10.80;35.60;;;;;;5096242;27;20468;-65
2023/04/22 05:28:02;;;;;;;10.30;6.60;;;10.80;35.50;;;;;;5097058;27;20561;-66
2023/04/22 05:30:29;;;;;;;11.83;5.53;;;10.90;35.40;;;;;;5097033;27;20470;-66
2023/04/22 05:32:55;;;;;;;11.57;6.40;;;10.90;35.20;;;;;;5107894;27;20961;-66
2023/04/22 05:35:22;;;;;;;10.03;6.43;;;11.00;35.20;;;;;;5094696;28;20475;-66
2023/04/22 05:37:49;;;;;;;9.83;6.53;;;11.00;35.10;;;;;;5097985;27;20483;-66
2023/04/22 05:40:15;;;;;;;8.90;5.53;;;11.20;35.10;;;;;;5101431;27;20735;-66
2023/04/22 05:42:44;;;;;;;12.20;6.37;;;11.50;34.80;;;;;;5096449;27;20468;-66
2023/04/22 05:45:11;;;;;;;11.93;7.43;;;11.70;35.00;;;;;;5097203;27;20788;-66
2023/04/22 05:47:37;;;;;;;10.00;6.97;;;12.00;34.00;;;;;;5094044;28;20479;-66
2023/04/22 05:50:05;;;;;;;9.90;6.70;;;12.30;33.50;;;;;;5096556;27;20570;-67
2023/04/22 05:52:32;;;;;;;11.10;6.90;;;12.50;32.80;;;;;;5091361;27;20463;-66
2023/04/22 05:54:58;;;;;;;11.00;6.40;;;13.00;31.40;;;;;;5094736;27;20483;-66
2023/04/22 05:57:25;;;;;;;12.40;8.50;;;13.40;30.00;;;;;;5095616;27;20486;-66
2023/04/22 05:59:53;;;;;;;9.13;6.40;;;14.00;28.10;;;;;;5101443;27;20455;-66
2023/04/22 06:02:20;;;;;;;9.67;6.70;;;14.70;25.50;;;;;;5090763;27;20471;-66
2023/04/22 06:04:47;;;;;;;8.97;5.70;;;15.30;23.10;;;;;;5091172;28;21112;-67
2023/04/22 06:07:13;;;;;;;8.10;5.73;;;16.20;21.30;;;;;;5099164;27;20485;-67
2023/04/22 06:09:40;;;;;;;11.00;6.63;;;17.20;18.20;;;;;;5101226;27;20467;-64
2023/04/22 06:12:07;;;;;;;12.17;5.43;;;17.70;15.50;;;;;;5097847;28;20456;-64
2023/04/22 06:14:34;;;;;;;7.20;4.20;;;18.10;14.90;;;;;;5100114;27;20583;-64
2023/04/22 06:17:02;;;;;;;8.07;4.47;;;18.60;14.00;;;;;;5099244;27;20483;-64
2023/04/22 06:19:28;;;;;;;8.67;4.70;;;18.80;13.60;;;;;;5094778;27;20455;-66
2023/04/22 06:21:55;;;;;;;6.57;4.03;;;19.00;12.90;;;;;;5093710;28;20459;-65
2023/04/22 06:24:22;;;;;;;6.83;4.50;;;19.00;12.50;;;;;;5096401;28;20447;-65
2023/04/22 06:26:49;;;;;;;8.20;4.60;;;18.90;11.00;;;;;;5097371;28;20480;-64
2023/04/22 06:29:15;;;;;;;8.40;4.60;;;18.80;10.80;;;;;;5093963;28;20459;-64
2023/04/22 06:31:42;;;;;;;6.70;3.87;;;18.60;11.60;;;;;;5090516;28;20471;-64
2023/04/22 06:34:10;;;;;;;8.87;4.00;;;18.40;11.00;;;;;;5095095;28;20487;-64
2023/04/22 06:36:37;;;;;;;6.60;3.70;;;18.10;11.70;;;;;;5093120;28;20463;-65
2023/04/22 06:39:04;;;;;;;7.20;4.33;;;17.90;12.60;;;;;;5095716;28;20956;-64
2023/04/22 06:41:31;;;;;;;8.93;3.77;;;17.80;13.00;;;;;;5099777;27;20463;-64
2023/04/22 06:43:58;;;;;;;7.87;4.50;;;17.90;12.10;;;;;;5088490;28;20495;-64
2023/04/22 06:46:25;;;;;;;8.00;3.53;;;17.80;12.10;;;;;;5097596;28;20482;-65
2023/04/22 06:48:51;;;;;;;7.73;4.40;;;17.80;12.50;;;;;;5093199;28;20467;-64
2023/04/22 06:51:19;;;;;;;8.13;3.37;;;17.90;13.10;;;;;;5095292;28;20459;-64
2023/04/22 06:53:46;;;;;;;7.33;3.63;;;18.00;12.60;;;;;;5097732;28;20468;-64
2023/04/22 06:56:14;;;;;;;6.73;3.70;;;18.10;12.60;;;;;;5100438;28;20463;-65
2023/04/22 06:58:41;;;;;;;7.87;3.40;;;18.20;12.50;;;;;;5102754;28;20492;-64
2023/04/22 07:01:07;;;;;;;6.43;3.13;;;18.20;12.30;;;;;;5098024;28;20471;-64
2023/04/22 07:03:34;;;;;;;8.10;3.53;;;18.50;12.50;;;;;;5092407;28;20802;-64
2023/04/22 07:06:01;;;;;;;6.60;3.03;;;19.00;11.30;;;;;;5090822;28;20467;-65
2023/04/22 07:08:29;;;;;;;4.90;2.30;;;19.80;9.50;;;;;;5091025;28;20510;-65
2023/04/22 07:10:56;;;;;;;5.87;2.57;;;20.30;7.90;;;;;;5097332;28;20465;-65
2023/04/22 07:13:23;;;;;;;6.20;3.03;;;20.90;7.10;;;;;;5096074;28;20467;-65
2023/04/22 07:15:50;;;;;;;6.07;3.03;;;21.90;6.00;;;;;;5097530;28;20479;-65
2023/04/22 07:18:16;;;;;;;6.50;3.47;;;22.70;3.50;;;;;;5094460;28;20514;-65
2023/04/22 07:20:43;;;;;;;6.00;2.80;;;23.00;2.50;;;;;;5100718;28;20459;-65
2023/04/22 07:23:10;;;;;;;5.33;2.87;;;23.00;2.80;;;;;;5099425;28;20452;-65
2023/04/22 07:25:38;;;;;;;6.43;2.40;;;23.00;2.60;;;;;;5093615;28;20443;-65
2023/04/22 07:28:04;;;;;;;4.87;2.30;;;23.40;2.10;;;;;;5095303;28;20488;-65
2023/04/22 07:30:31;;;;;;;6.07;2.70;;;24.90;1.00;;;;;;5102320;28;20469;-65
2023/04/22 07:32:58;;;;;;;7.20;2.10;;;26.40;1.00;;;;;;5094926;28;20886;-65
2023/04/22 07:35:24;;;;;;;4.30;1.90;;;27.20;1.00;;;;;;5096433;28;20472;-65
2023/04/22 07:37:51;;;;;;;6.00;2.30;;;28.40;1.00;;;;;;5095683;28;21006;-65
2023/04/22 07:40:18;;;;;;;4.40;2.00;;;29.70;1.00;;;;;;5100463;28;20463;-65
2023/04/22 07:42:46;;;;;;;4.13;1.77;;;31.90;1.00;;;;;;5096230;28;20479;-66
2023/04/22 07:45:13;;;;;;;5.70;1.87;;;33.60;1.00;;;;;;5105919;28;20459;-65
2023/04/22 07:47:40;;;;;;;4.33;1.90;;;34.40;1.00;;;;;;5093877;27;20486;-65
2023/04/22 07:50:07;;;;;;;10.13;1.90;;;34.10;1.00;;;;;;5106801;27;20463;-65
2023/04/22 07:52:35;;;;;;;4.97;1.80;;;33.70;1.00;;;;;;5103203;27;20467;-66
2023/04/22 07:55:01;;;;;;;5.27;2.40;;;33.30;1.00;;;;;;5104510;27;20471;-66
2023/04/22 07:57:28;;;;;;;4.10;1.60;;;32.90;1.00;;;;;;5099093;28;21054;-71
2023/04/22 07:59:56;;;;;;;4.63;1.80;;;32.70;1.00;;;;;;5110225;28;20456;-70
2023/04/22 08:02:23;;;;;;;4.83;1.60;;;32.20;1.00;;;;;;5114234;27;20478;-69
2023/04/22 08:04:50;;;;;;;4.97;2.13;;;31.80;1.00;;;;;;5099004;28;20456;-70
2023/04/22 08:07:17;;;;;;;4.17;1.33;;;31.80;1.00;;;;;;5082434;27;21153;-70
2023/04/22 08:09:43;;;;;;;3.93;1.57;;;32.10;1.00;;;;;;5097483;27;20451;-68
2023/04/22 08:12:10;;;;;;;3.87;1.50;;;32.40;1.00;;;;;;5105046;27;20803;-69
2023/04/22 08:14:37;;;;;;;4.77;1.70;;;32.10;1.00;;;;;;5094088;27;20475;-69
2023/04/22 08:17:05;;;;;;;4.40;1.30;;;31.90;1.00;;;;;;5098424;28;21014;-69
2023/04/22 08:19:32;;;;;;;5.70;1.70;;;31.40;1.00;;;;;;5105761;27;20470;-69
2023/04/22 08:21:58;;;;;;;3.70;1.47;;;31.10;1.00;;;;;;5104108;28;20451;-69
2023/04/22 08:24:25;;;;;;;3.70;1.30;;;31.20;1.00;;;;;;5103450;27;20452;-69
2023/04/22 08:26:52;;;;;;;4.37;1.50;;;31.60;1.00;;;;;;5102669;28;20510;-69
2023/04/22 08:29:19;;;;;;;5.03;1.40;;;32.30;1.00;;;;;;5107984;27;20459;-69
2023/04/22 08:31:45;;;;;;;3.67;1.37;;;32.70;1.00;;;;;;5105689;28;20463;-69
2023/04/22 08:34:13;;;;;;;3.87;1.60;;;33.10;1.00;;;;;;5099587;27;20470;-69
2023/04/22 08:36:40;;;;;;;4.00;1.70;;;33.60;1.00;;;;;;5099931;27;20455;-69
2023/04/22 08:39:07;;;;;;;4.90;1.70;;;33.40;1.00;;;;;;5101621;28;20998;-69
2023/04/22 08:41:35;;;;;;;4.30;1.87;;;32.50;1.00;;;;;;5099809;28;20459;-69
2023/04/22 08:44:02;;;;;;;4.17;1.67;;;31.90;1.00;;;;;;5099896;28;20500;-69
2023/04/22 08:46:30;;;;;;;4.00;1.67;;;31.30;1.00;;;;;;5099977;28;20474;-69
2023/04/22 08:49:02;;;;;;;4.33;1.63;;;30.90;1.00;;;;;;5091706;28;20494;-71
2023/04/22 08:51:32;;;;;;;4.70;1.90;;;30.60;1.00;;;;;;5101554;27;20463;-69
2023/04/22 08:53:59;;;;;;;4.63;1.87;;;30.20;1.00;;;;;;5095900;28;20460;-70
2023/04/22 08:56:27;;;;;;;6.47;1.73;;;29.60;1.00;;;;;;5097588;28;20809;-69
2023/04/22 08:58:54;;;;;;;3.90;1.50;;;29.10;1.00;;;;;;5089431;28;21000;-69
2023/04/22 09:01:22;;;;;;;4.93;1.70;;;28.80;1.00;;;;;;5101617;28;20467;-69
2023/04/22 09:03:49;;;;;;;3.90;1.43;;;28.50;1.00;;;;;;5105130;28;20459;-69
2023/04/22 09:06:19;;;;;;;3.83;1.50;;;28.50;1.00;;;;;;5101931;28;20475;-69
2023/04/22 09:08:49;;;;;;;4.43;1.47;;;28.50;1.00;;;;;;5098559;28;20541;-69
2023/04/22 09:11:16;;;;;;;5.30;1.67;;;28.90;1.00;;;;;;5105744;27;20455;-69
2023/04/22 09:13:43;;;;;;;4.50;1.50;;;29.70;1.00;;;;;;5099997;28;20459;-70
2023/04/22 09:16:10;;;;;;;4.00;1.33;;;30.70;1.00;;;;;;5103840;28;20478;-69
2023/04/22 09:18:41;;;;;;;4.33;1.70;;;31.30;1.00;;;;;;5092805;28;20475;-69
2023/04/22 09:21:08;;;;;;;4.80;1.43;;;31.20;1.00;;;;;;5102007;28;20471;-70
2023/04/22 09:23:45;;;;;;;5.00;1.40;;;30.80;1.00;;;;;;5097997;27;20456;-69
2023/04/22 09:26:13;;;;;;;6.90;1.50;;;30.20;1.00;;;;;;5090480;28;20970;-69
2023/04/22 09:28:49;;;;;;;4.50;1.30;;;29.90;1.00;;;;;;5088041;27;20998;-69
2023/04/22 09:31:16;;;;;;;3.77;1.30;;;30.00;1.00;;;;;;5095993;27;20475;-69
2023/04/22 09:33:47;;;;;;;4.40;1.70;;;30.30;1.00;;;;;;5093195;28;20470;-70
2023/04/22 09:36:15;;;;;;;5.73;2.27;;;30.30;1.00;;;;;;5103096;28;20475;-70
2023/04/22 09:38:51;;;;;;;3.50;1.27;;;30.40;1.00;;;;;;5094309;28;20479;-69
2023/04/22 09:41:26;;;;;;;3.80;1.40;;;31.00;1.00;;;;;;5099711;28;20464;-69
2023/04/22 09:43:55;;;;;;;4.17;1.47;;;31.50;1.00;;;;;;5092328;27;20524;-72
2023/04/22 09:46:22;;;;;;;3.60;1.30;;;31.10;1.00;;;;;;5094733;28;20514;-65
2023/04/22 09:48:49;;;;;;;5.40;1.70;;;30.50;1.00;;;;;;5091511;28;20456;-65
2023/04/22 09:51:17;;;;;;;4.50;1.40;;;29.70;1.00;;;;;;5094720;28;20454;-67
2023/04/22 09:53:45;;;;;;;3.77;1.30;;;29.10;1.00;;;;;;5091610;28;20465;-66
2023/04/22 09:56:11;;;;;;;4.77;1.77;;;28.90;1.00;;;;;;5094322;28;20508;-66
2023/04/22 09:58:40;;;;;;;4.37;1.47;;;28.60;1.00;;;;;;5091076;28;20854;-66
2023/04/22 10:01:07;;;;;;;4.00;1.10;;;28.50;1.00;;;;;;5092990;28;20478;-67
2023/04/22 10:03:34;;;;;;;3.70;1.30;;;29.30;1.00;;;;;;5100102;28;20509;-66
2023/04/22 10:06:02;;;;;;;5.50;1.57;;;30.10;1.00;;;;;;5097919;28;20456;-66
2023/04/22 10:08:31;;;;;;;4.70;1.37;;;31.30;1.00;;;;;;5101306;27;20483;-70
2023/04/22 10:10:58;;;;;;;3.50;1.20;;;32.70;1.00;;;;;;5097089;28;20456;-70
2023/04/22 10:13:25;;;;;;;4.33;1.20;;;34.40;1.00;;;;;;5452090;22;20435;-70
2023/04/22 10:15:56;;;;;;;3.87;1.27;;;36.00;1.00;;;;;;5082646;28;20483;-70
2023/04/22 10:18:25;;;;;;;4.63;1.17;;;37.10;1.00;;;;;;5076780;28;20495;-69
2023/04/22 10:20:54;;;;;;;4.17;1.60;;;37.40;1.00;;;;;;5077658;28;20521;-70
2023/04/22 10:23:23;;;;;;;3.80;1.50;;;35.80;1.00;;;;;;5072641;28;20562;-69
2023/04/22 10:25:53;;;;;;;3.57;1.30;;;33.90;1.00;;;;;;5072229;28;20464;-70
2023/04/22 10:28:22;;;;;;;4.00;1.20;;;32.70;1.00;;;;;;5077980;28;20492;-70
2023/04/22 10:30:49;;;;;;;4.03;1.03;;;32.50;1.00;;;;;;5066616;28;20473;-69
2023/04/22 10:33:39;;;;;;;3.80;1.10;;;32.40;1.00;;;;;;5075560;28;20472;-69
2023/04/22 10:36:10;;;;;;;4.50;1.47;;;31.50;1.00;;;;;;5075548;28;20494;-69
2023/04/22 10:38:39;;;;;;;4.13;1.10;;;30.20;1.00;;;;;;5079513;28;20484;-68
2023/04/22 10:41:06;;;;;;;4.43;1.33;;;29.20;1.00;;;;;;5079448;28;20460;-68
2023/04/22 10:43:42;;;;;;;4.90;1.13;;;28.40;1.00;;;;;;5075149;28;20476;-68
2023/04/22 10:46:57;;;;;;;4.00;1.13;;;27.80;1.00;;;;;;5076450;28;20484;-68
2023/04/22 10:49:26;;;;;;;4.47;1.13;;;27.40;1.00;;;;;;5075598;28;20472;-67
2023/04/22 10:51:54;;;;;;;3.70;1.00;;;26.80;1.00;;;;;;5081091;28;20463;-68
2023/04/22 10:55:02;;;;;;;5.73;1.20;;;26.60;1.00;;;;;;5083924;28;20471;-68
2023/04/22 10:57:36;;;;;;;4.30;1.60;;;26.40;1.00;;;;;;5081419;28;20547;-67
2023/04/22 11:00:37;;;;;;;3.77;1.23;;;26.10;1.00;;;;;;5080210;28;20605;-68
2023/04/22 11:03:12;;;;;;;4.30;1.07;;;25.70;1.00;;;;;;5073299;28;20486;-68
2023/04/22 11:05:41;;;;;;;3.70;1.20;;;25.30;1.00;;;;;;5075712;28;20459;-68
2023/04/22 11:08:12;;;;;;;3.93;1.20;;;25.20;1.00;;;;;;5075168;28;20485;-68
2023/04/22 11:10:41;;;;;;;3.77;1.30;;;25.10;1.00;;;;;;5075543;28;20460;-68
2023/04/22 11:13:10;;;;;;;4.20;1.03;;;25.00;1.00;;;;;;5078052;28;20472;-68
2023/04/22 11:15:39;;;;;;;4.00;1.10;;;25.10;1.00;;;;;;5083202;28;20495;-68
2023/04/22 11:18:20;;;;;;;4.00;1.10;;;25.10;1.00;;;;;;5077324;28;20582;-68
2023/04/22 11:20:49;;;;;;;4.63;1.30;;;25.10;1.00;;;;;;5078473;28;20538;-68
2023/04/22 11:23:22;;;;;;;4.17;1.43;;;25.10;1.00;;;;;;5081754;28;20457;-68
2023/04/22 11:25:53;;;;;;;3.57;1.13;;;25.10;1.00;;;;;;5081321;28;20488;-67
2023/04/22 11:28:21;;;;;;;3.60;1.23;;;25.10;1.00;;;;;;5084072;28;20515;-67
2023/04/22 11:30:48;;;;;;;3.60;1.20;;;25.00;1.00;;;;;;5079227;28;20499;-68
2023/04/22 11:33:15;;;;;;;6.20;1.20;;;24.80;1.00;;;;;;5082346;28;20468;-67
2023/04/22 11:35:42;;;;;;;4.00;1.37;;;24.50;1.00;;;;;;5073239;28;20572;-68
2023/04/22 11:38:10;;;;;;;4.43;1.23;;;24.40;1.00;;;;;;5079367;28;20485;-68
2023/04/22 11:40:39;;;;;;;7.17;1.47;;;24.20;1.00;;;;;;5083646;28;20463;-68
2023/04/22 11:43:07;;;;;;;4.40;1.50;;;24.10;1.00;;;;;;5080575;28;20465;-68
2023/04/22 11:45:35;;;;;;;4.73;1.60;;;24.10;1.00;;;;;;5081412;28;20467;-68
2023/04/22 11:48:04;;;;;;;5.33;1.40;;;24.10;1.00;;;;;;5081306;28;20480;-67
2023/04/22 11:50:33;;;;;;;3.80;1.20;;;24.00;1.00;;;;;;5088298;28;20468;-67
2023/04/22 11:53:01;;;;;;;4.00;1.20;;;24.00;1.00;;;;;;5081027;28;20993;-68
2023/04/22 11:55:31;;;;;;;3.60;1.20;;;24.00;1.00;;;;;;5069784;28;20472;-67
2023/04/22 11:57:59;;;;;;;4.60;1.30;;;23.90;1.00;;;;;;5077513;28;20883;-68
2023/04/22 12:00:30;;;;;;;3.40;0.90;;;23.90;1.00;;;;;;5072503;28;20483;-67
2023/04/22 12:02:59;;;;;;;4.20;1.60;;;23.90;1.00;;;;;;5075113;28;20988;-67
2023/04/22 12:05:37;;;;;;;3.70;1.20;;;23.90;1.00;;;;;;5083347;28;20460;-68
2023/04/22 12:08:07;;;;;;;3.83;1.27;;;23.90;1.00;;;;;;5070689;28;20594;-68
2023/04/22 12:10:40;;;;;;;3.67;1.30;;;23.80;1.00;;;;;;5075114;28;20545;-67
2023/04/22 12:13:07;;;;;;;3.90;1.37;;;23.70;1.00;;;;;;5077779;28;20541;-67
2023/04/22 12:15:42;;;;;;;4.47;1.60;;;23.70;1.00;;;;;;5073365;28;20465;-67
2023/04/22 12:18:10;;;;;;;3.57;1.20;;;23.70;1.00;;;;;;5070860;28;20484;-67
2023/04/22 12:20:39;;;;;;;3.80;1.07;;;23.70;1.00;;;;;;5067625;28;20468;-67
2023/04/22 12:23:13;;;;;;;3.70;1.27;;;23.80;1.00;;;;;;5069639;28;20526;-67
2023/04/22 12:25:42;;;;;;;4.63;1.20;;;23.70;1.00;;;;;;5066528;28;20896;-67
2023/04/22 12:28:10;;;;;;;4.60;1.17;;;23.70;1.00;;;;;;5065449;28;20491;-67
2023/04/22 12:30:36;;;;;;;4.23;1.00;;;23.60;1.00;;;;;;5071653;28;20460;-67
2023/04/22 12:33:03;;;;;;;4.70;1.37;;;23.60;1.00;;;;;;5076859;28;20959;-68
2023/04/22 12:35:30;;;;;;;3.53;1.03;;;23.60;1.00;;;;;;5075820;28;20500;-67
2023/04/22 12:37:57;;;;;;;3.87;1.30;;;23.50;1.00;;;;;;5074611;28;21280;-67
2023/04/22 12:40:23;;;;;;;3.87;1.00;;;23.40;1.00;;;;;;5075311;28;20469;-69
2023/04/22 12:42:51;;;;;;;4.53;1.30;;;23.20;1.00;;;;;;5077825;28;20866;-67
2023/04/22 12:45:18;;;;;;;3.40;1.00;;;23.20;1.00;;;;;;5078605;28;20566;-67
2023/04/22 12:47:45;;;;;;;4.00;1.30;;;23.10;1.00;;;;;;5072867;28;20501;-67
2023/04/22 12:50:12;;;;;;;3.60;0.90;;;23.00;1.00;;;;;;5078293;28;20461;-67
2023/04/22 12:52:39;;;;;;;4.27;1.50;;;23.00;1.00;;;;;;5080036;28;20936;-67
2023/04/22 12:55:06;;;;;;;3.70;1.40;;;23.00;1.00;;;;;;5078930;28;20464;-67